Pine Bank, Pennsylvania
Current Conditions -  °F | °C
As of 12:53 AM on Friday 31 Oct 2014 (Local Time) from KMGW Reporting Station
Overcast Overcast  
Wind Chill: 48°   Ceiling: 4100
Heat Index: 48°   Visibility: 10mi
Dew Point: 36°   Wind: 0mph
Humidity: 63%   Direction: NA
Pressure: 30.04"   Gusts: NA
Location:  39.76°N, 80.31°W
Report Text: KMGW 310453Z AUTO 00000KT 10SM OVC041 09/02 A3004 RMK AO2 SLP174 T00890022 401110072 TSNO
Loading
Personal Weather Stations






























Interactive Weather Map
Tropical Storm Tracking
New forecast layout! Learn more

10-Day Weather Forecast

Advertisements
Track Severe Weather on mobile